Time;durP1;ratioP1;P1;durP2;ratioP2;P2;SDS_P1;SDS_P2;PMS_P1;PMS_P2;Temp;Humidity;BMP_temperature;BMP_pressure;BME280_temperature;BME280_humidity;BME280_pressure;Samples;Min_cycle;Max_cycle;Signal;HPM_P1;HPM_P2
2021/04/27 00:02:03;;;;;;;5.57;1.55;;;10.30;33.30;;;;;;5042731;28;20076;-75
2021/04/27 00:04:29;;;;;;;4.63;1.77;;;10.40;33.40;;;;;;5042229;28;20077;-74
2021/04/27 00:06:55;;;;;;;2.45;1.67;;;10.40;33.40;;;;;;5042428;28;20077;-74
2021/04/27 00:09:22;;;;;;;5.15;1.75;;;10.30;33.50;;;;;;5043615;28;20110;-74
2021/04/27 00:11:48;;;;;;;2.72;1.80;;;10.20;33.60;;;;;;5041254;28;20132;-75
2021/04/27 00:14:15;;;;;;;6.30;1.55;;;10.30;33.80;;;;;;5041768;28;20052;-76
2021/04/27 00:16:41;;;;;;;6.07;1.50;;;10.20;33.80;;;;;;5042545;28;20518;-75
2021/04/27 00:19:09;;;;;;;3.38;1.80;;;10.20;34.00;;;;;;5041600;28;20140;-75
2021/04/27 00:21:37;;;;;;;4.55;1.80;;;10.30;34.00;;;;;;5042809;28;20053;-76
2021/04/27 00:24:05;;;;;;;3.55;1.60;;;10.20;33.90;;;;;;5038230;28;20098;-75
2021/04/27 00:26:31;;;;;;;2.85;1.90;;;10.10;34.20;;;;;;5043628;28;20049;-76
2021/04/27 00:28:58;;;;;;;4.93;1.55;;;10.10;34.40;;;;;;5041935;28;20504;-76
2021/04/27 00:31:27;;;;;;;6.00;1.80;;;10.10;34.50;;;;;;5043807;28;20432;-75
2021/04/27 00:33:55;;;;;;;4.80;1.35;;;10.10;34.50;;;;;;5042019;28;20559;-76
2021/04/27 00:36:22;;;;;;;1.88;1.55;;;10.20;34.40;;;;;;5044457;28;20044;-75
2021/04/27 00:38:49;;;;;;;3.72;1.90;;;10.20;34.40;;;;;;5043099;28;20045;-75
2021/04/27 00:41:16;;;;;;;3.20;1.92;;;10.00;34.40;;;;;;5040040;28;20048;-75
2021/04/27 00:43:43;;;;;;;2.42;1.70;;;10.00;34.70;;;;;;5041235;28;20122;-77
2021/04/27 00:46:09;;;;;;;4.00;1.65;;;10.00;34.70;;;;;;5047909;28;20485;-76
2021/04/27 00:48:36;;;;;;;1.98;1.70;;;10.10;34.80;;;;;;5043414;28;20090;-75
2021/04/27 00:51:03;;;;;;;5.55;1.60;;;10.10;34.80;;;;;;5048328;28;20323;-75
2021/04/27 00:53:30;;;;;;;7.20;1.65;;;10.10;34.80;;;;;;5038705;28;20106;-75
2021/04/27 00:55:57;;;;;;;4.65;1.70;;;10.00;34.90;;;;;;5029934;28;20045;-74
2021/04/27 00:58:26;;;;;;;9.27;1.98;;;10.00;35.10;;;;;;5047102;28;20086;-75
2021/04/27 01:00:53;;;;;;;3.15;1.85;;;10.00;35.10;;;;;;5041209;28;20151;-76
2021/04/27 01:03:20;;;;;;;2.78;1.35;;;10.10;35.10;;;;;;5036780;28;20053;-75
2021/04/27 01:05:47;;;;;;;2.88;1.75;;;10.00;35.30;;;;;;5047834;28;20044;-74
2021/04/27 01:08:44;;;;;;;4.50;1.77;;;10.10;35.30;;;;;;5041234;28;20057;-75
2021/04/27 01:11:40;;;;;;;2.97;1.70;;;10.00;35.60;;;;;;5039364;28;20045;-75
2021/04/27 01:14:19;;;;;;;4.28;1.80;;;9.90;36.40;;;;;;5044737;28;20041;-75
2021/04/27 01:16:55;;;;;;;6.47;1.95;;;9.90;36.50;;;;;;5060353;28;20045;-75
2021/04/27 01:19:34;;;;;;;4.03;1.90;;;9.90;36.60;;;;;;5062706;28;20064;-75
2021/04/27 01:22:01;;;;;;;3.95;1.90;;;9.80;36.70;;;;;;5042578;28;20041;-75
2021/04/27 01:24:49;;;;;;;6.15;1.75;;;9.80;36.80;;;;;;5054624;28;20098;-75
2021/04/27 01:27:16;;;;;;;5.35;1.98;;;9.80;37.10;;;;;;5050112;28;20102;-75
2021/04/27 01:29:44;;;;;;;8.00;2.20;;;9.80;37.00;;;;;;5048622;28;20110;-75
2021/04/27 01:32:11;;;;;;;3.30;1.98;;;9.70;37.20;;;;;;5050672;28;20079;-75
2021/04/27 01:34:45;;;;;;;3.08;1.75;;;9.60;37.40;;;;;;5055208;28;20056;-75
2021/04/27 01:37:13;;;;;;;3.00;1.85;;;9.40;37.70;;;;;;5054448;28;20542;-75
2021/04/27 01:39:41;;;;;;;2.92;1.58;;;9.40;37.90;;;;;;5052370;28;20118;-77
2021/04/27 01:42:09;;;;;;;3.75;2.10;;;9.40;37.90;;;;;;5054209;28;20049;-76
2021/04/27 01:44:38;;;;;;;5.43;2.08;;;9.40;38.00;;;;;;5053378;28;21406;-76
2021/04/27 01:47:06;;;;;;;5.63;1.92;;;9.30;38.00;;;;;;5053122;28;20076;-76
2021/04/27 01:49:33;;;;;;;3.15;2.00;;;9.10;38.40;;;;;;5054461;28;20491;-76
2021/04/27 01:52:00;;;;;;;3.47;1.75;;;9.20;38.60;;;;;;5063724;28;20053;-76
2021/04/27 01:54:29;;;;;;;2.05;1.90;;;9.20;38.60;;;;;;5056320;28;20049;-76
2021/04/27 01:56:56;;;;;;;5.60;1.88;;;9.20;38.50;;;;;;5051834;28;20102;-75
2021/04/27 01:59:23;;;;;;;5.03;1.88;;;9.20;38.70;;;;;;5055994;28;20396;-75
2021/04/27 02:01:49;;;;;;;2.92;1.80;;;9.30;38.30;;;;;;5055334;28;20049;-76
2021/04/27 02:04:24;;;;;;;2.80;1.90;;;9.40;38.20;;;;;;5051126;28;20049;-76
2021/04/27 02:06:51;;;;;;;3.22;1.92;;;9.40;38.10;;;;;;5056499;28;20045;-76
2021/04/27 02:09:21;;;;;;;2.17;1.33;;;9.50;38.20;;;;;;5054834;28;20099;-76
2021/04/27 02:11:50;;;;;;;7.25;1.98;;;9.50;38.10;;;;;;5051375;28;20064;-75
2021/04/27 02:14:17;;;;;;;3.67;1.88;;;9.40;38.20;;;;;;5060192;28;20256;-74
2021/04/27 02:17:02;;;;;;;3.60;1.58;;;9.40;38.30;;;;;;5055716;28;20617;-75
2021/04/27 02:19:30;;;;;;;4.90;1.70;;;9.30;38.40;;;;;;5052792;28;20041;-75
2021/04/27 02:25:46;;;;;;;2.90;1.60;;;9.30;38.40;;;;;;5045308;28;20509;-75
2021/04/27 02:28:13;;;;;;;6.00;2.03;;;9.30;39.00;;;;;;5054805;28;20044;-75
2021/04/27 02:30:40;;;;;;;2.08;1.60;;;9.20;38.60;;;;;;5053762;28;20143;-75
2021/04/27 02:33:08;;;;;;;1.75;1.40;;;9.20;38.70;;;;;;5052731;28;20480;-76
2021/04/27 02:35:34;;;;;;;3.40;1.65;;;9.10;38.80;;;;;;5044831;28;20148;-75
2021/04/27 02:38:00;;;;;;;2.03;1.65;;;9.20;39.00;;;;;;5047725;28;20122;-74
2021/04/27 02:40:28;;;;;;;2.33;1.30;;;9.20;38.90;;;;;;5050348;28;20048;-74
2021/04/27 02:42:59;;;;;;;3.42;1.80;;;9.20;38.80;;;;;;5047513;28;20099;-74
2021/04/27 02:45:33;;;;;;;4.20;1.80;;;9.00;39.40;;;;;;5048712;28;20456;-75
2021/04/27 02:48:11;;;;;;;2.40;1.70;;;9.20;39.10;;;;;;5043313;28;20042;-75
2021/04/27 02:50:39;;;;;;;4.35;1.70;;;9.10;38.80;;;;;;5046710;28;20053;-76
2021/04/27 02:53:06;;;;;;;2.75;1.65;;;9.20;38.70;;;;;;5048368;28;20099;-76
2021/04/27 02:55:32;;;;;;;2.63;1.75;;;9.10;38.70;;;;;;5043722;28;20455;-75
2021/04/27 02:57:59;;;;;;;5.53;1.80;;;9.20;38.60;;;;;;5051725;28;20056;-76
2021/04/27 03:00:25;;;;;;;3.33;1.88;;;9.00;38.60;;;;;;5050073;28;20446;-76
2021/04/27 03:02:52;;;;;;;6.15;1.60;;;9.00;38.90;;;;;;5025962;28;20049;-77
2021/04/27 03:05:18;;;;;;;1.98;1.63;;;9.00;38.80;;;;;;5049391;28;20102;-76
2021/04/27 03:07:45;;;;;;;2.63;1.60;;;8.90;38.90;;;;;;5048417;28;20045;-76
2021/04/27 03:10:12;;;;;;;3.85;2.00;;;9.00;39.00;;;;;;5044414;28;20049;-77
2021/04/27 03:12:38;;;;;;;4.25;1.80;;;8.90;38.90;;;;;;5050913;28;20050;-76
2021/04/27 03:15:07;;;;;;;8.13;2.05;;;8.80;39.00;;;;;;5049915;28;20053;-76
2021/04/27 03:17:34;;;;;;;3.40;1.73;;;8.90;39.00;;;;;;5046226;28;20114;-76
2021/04/27 03:20:02;;;;;;;2.72;1.70;;;8.90;39.10;;;;;;5050641;28;20472;-77
2021/04/27 03:22:29;;;;;;;2.83;1.67;;;8.80;39.20;;;;;;5048693;28;20045;-77
2021/04/27 03:24:55;;;;;;;4.25;2.00;;;8.80;39.40;;;;;;5049153;28;20106;-77
2021/04/27 03:27:21;;;;;;;4.70;1.70;;;8.90;39.40;;;;;;5050240;28;20488;-76
2021/04/27 03:29:48;;;;;;;2.67;1.60;;;8.90;39.40;;;;;;5048476;28;20061;-77
2021/04/27 03:32:15;;;;;;;2.60;1.33;;;8.90;39.30;;;;;;5050631;28;20053;-77
2021/04/27 03:34:42;;;;;;;2.47;1.73;;;8.90;39.30;;;;;;5048921;28;20107;-76
2021/04/27 03:37:09;;;;;;;4.93;1.83;;;8.90;39.30;;;;;;5049916;28;20057;-77
2021/04/27 03:39:36;;;;;;;5.45;1.80;;;9.00;39.20;;;;;;5049226;28;20049;-77
2021/04/27 03:42:03;;;;;;;3.13;1.55;;;9.00;39.10;;;;;;5050396;28;20416;-76
2021/04/27 03:44:30;;;;;;;2.85;1.70;;;8.90;39.20;;;;;;5049710;28;20140;-76
2021/04/27 03:46:57;;;;;;;3.45;1.98;;;8.80;39.30;;;;;;5049957;28;20446;-76
2021/04/27 03:49:24;;;;;;;4.05;1.80;;;8.70;39.60;;;;;;5046050;28;20137;-76
2021/04/27 03:51:50;;;;;;;3.42;1.70;;;8.70;39.60;;;;;;5049836;28;20049;-76
2021/04/27 03:54:17;;;;;;;3.97;2.05;;;8.80;39.60;;;;;;5048429;28;20465;-76
2021/04/27 03:56:44;;;;;;;3.25;1.70;;;8.70;39.60;;;;;;5050091;28;20065;-75
2021/04/27 03:59:11;;;;;;;7.20;1.67;;;8.70;39.70;;;;;;5048386;28;20441;-77
2021/04/27 04:01:38;;;;;;;4.75;1.70;;;8.70;39.50;;;;;;5048192;28;20057;-75
2021/04/27 04:04:05;;;;;;;3.92;1.73;;;8.60;39.90;;;;;;5045412;28;20107;-75
2021/04/27 04:06:32;;;;;;;4.43;1.80;;;8.50;40.10;;;;;;5049420;28;20056;-75
2021/04/27 04:08:59;;;;;;;4.93;1.80;;;8.50;40.10;;;;;;5040534;28;20091;-76
2021/04/27 04:11:26;;;;;;;3.35;2.00;;;8.70;40.00;;;;;;5048694;28;20041;-75
2021/04/27 04:13:52;;;;;;;2.92;1.77;;;8.60;39.90;;;;;;5050550;28;20045;-76
2021/04/27 04:16:19;;;;;;;4.30;1.70;;;8.60;40.00;;;;;;5049232;28;20052;-76
2021/04/27 04:18:45;;;;;;;5.55;1.60;;;8.60;40.10;;;;;;5047335;28;20050;-76
2021/04/27 04:21:12;;;;;;;9.48;2.10;;;8.50;40.10;;;;;;5060336;28;20057;-76
2021/04/27 04:23:38;;;;;;;6.63;2.30;;;8.40;40.10;;;;;;5040854;28;20061;-76
2021/04/27 04:26:04;;;;;;;2.83;1.63;;;8.40;40.20;;;;;;5044957;28;20502;-76
2021/04/27 04:28:31;;;;;;;3.72;1.75;;;8.60;40.20;;;;;;5048533;28;20045;-75
2021/04/27 04:30:57;;;;;;;2.50;1.38;;;8.60;40.00;;;;;;5050540;28;20083;-76
2021/04/27 04:33:24;;;;;;;3.05;1.67;;;8.60;39.90;;;;;;5047398;28;20060;-76
2021/04/27 04:35:50;;;;;;;3.22;1.73;;;8.60;40.00;;;;;;5051051;28;20102;-75
2021/04/27 04:38:18;;;;;;;2.95;1.58;;;8.50;40.10;;;;;;5048338;28;20115;-75
2021/04/27 04:40:49;;;;;;;2.67;1.75;;;8.50;40.10;;;;;;5046624;28;20132;-76
2021/04/27 04:43:17;;;;;;;2.72;1.52;;;8.60;40.10;;;;;;5049816;28;20090;-76
2021/04/27 04:45:44;;;;;;;4.30;1.50;;;8.60;40.10;;;;;;5049133;28;20045;-76
2021/04/27 04:48:11;;;;;;;6.28;1.88;;;8.50;40.10;;;;;;5047238;28;20076;-76
2021/04/27 04:50:37;;;;;;;4.50;1.60;;;8.50;40.00;;;;;;5050998;28;20099;-76
2021/04/27 04:53:05;;;;;;;2.88;1.85;;;8.60;40.10;;;;;;5047902;28;20061;-76
2021/04/27 04:55:35;;;;;;;3.65;1.83;;;8.50;39.90;;;;;;5049748;28;20053;-75
2021/04/27 04:58:02;;;;;;;2.38;1.60;;;8.60;39.90;;;;;;5047754;28;20480;-75
2021/04/27 05:00:29;;;;;;;4.65;1.73;;;8.70;39.80;;;;;;5045875;28;20774;-76
2021/04/27 05:02:55;;;;;;;3.60;1.92;;;8.80;39.70;;;;;;5043349;28;20114;-75
2021/04/27 05:05:22;;;;;;;3.58;1.85;;;8.80;39.50;;;;;;5048194;28;20048;-76
2021/04/27 05:07:57;;;;;;;3.97;1.73;;;8.70;39.80;;;;;;5046205;28;20037;-76
2021/04/27 05:10:24;;;;;;;4.50;1.80;;;8.70;39.70;;;;;;5040841;28;20053;-76
2021/04/27 05:12:50;;;;;;;5.38;1.80;;;8.70;39.70;;;;;;5047551;28;20126;-76
2021/04/27 05:15:17;;;;;;;2.58;1.67;;;8.90;40.20;;;;;;5048250;28;20435;-76
2021/04/27 05:17:45;;;;;;;4.57;1.65;;;8.90;39.60;;;;;;5047399;28;20511;-76
2021/04/27 05:20:12;;;;;;;5.05;1.90;;;9.00;39.60;;;;;;5050010;28;20500;-75
2021/04/27 05:22:38;;;;;;;3.90;2.03;;;8.90;39.40;;;;;;5045727;28;20079;-75
2021/04/27 05:25:05;;;;;;;6.07;2.30;;;8.90;39.50;;;;;;5046936;28;20123;-75
2021/04/27 05:27:32;;;;;;;3.85;1.75;;;9.00;39.40;;;;;;5049789;28;20099;-75
2021/04/27 05:29:58;;;;;;;7.10;1.85;;;9.10;39.50;;;;;;5047865;28;20067;-74
2021/04/27 05:32:24;;;;;;;3.38;1.80;;;9.20;39.40;;;;;;5046486;28;20095;-74
2021/04/27 05:34:51;;;;;;;11.75;2.10;;;9.30;39.10;;;;;;5048897;28;20052;-75
2021/04/27 05:37:17;;;;;;;3.33;1.85;;;9.40;39.10;;;;;;5048178;28;20037;-75
2021/04/27 05:39:43;;;;;;;4.95;2.05;;;9.30;39.10;;;;;;5044906;28;20095;-75
2021/04/27 05:42:10;;;;;;;4.78;1.98;;;9.30;39.10;;;;;;5042517;28;20442;-75
2021/04/27 05:44:42;;;;;;;7.47;1.80;;;9.50;38.90;;;;;;5048103;28;20051;-78
2021/04/27 05:47:09;;;;;;;3.05;1.80;;;9.70;38.50;;;;;;5046272;28;20049;-76
2021/04/27 05:49:35;;;;;;;4.00;1.85;;;9.60;38.60;;;;;;5047474;28;20049;-76
2021/04/27 05:52:02;;;;;;;5.07;1.83;;;9.70;38.80;;;;;;5045344;28;20057;-77
2021/04/27 05:54:29;;;;;;;4.20;1.90;;;10.00;37.70;;;;;;5047999;28;20057;-76
2021/04/27 05:56:55;;;;;;;2.25;1.67;;;10.00;37.70;;;;;;5047605;28;20048;-76
2021/04/27 05:59:22;;;;;;;5.93;2.33;;;9.90;38.60;;;;;;5047819;28;20449;-76
2021/04/27 06:01:49;;;;;;;7.68;2.10;;;10.20;37.60;;;;;;5048667;28;20728;-76
2021/04/27 06:04:16;;;;;;;5.00;1.70;;;10.40;37.20;;;;;;5043933;28;20048;-76
2021/04/27 06:06:43;;;;;;;4.88;1.90;;;10.40;37.30;;;;;;5048153;28;20049;-76
2021/04/27 06:09:10;;;;;;;6.30;2.03;;;10.30;37.10;;;;;;5046053;28;20124;-76
2021/04/27 06:11:37;;;;;;;7.00;2.25;;;10.30;37.30;;;;;;5049301;28;20044;-76
2021/04/27 06:14:04;;;;;;;4.65;1.90;;;10.60;37.40;;;;;;5050537;28;20041;-76
2021/04/27 06:16:31;;;;;;;4.93;1.70;;;11.00;36.40;;;;;;5050336;28;20095;-76
2021/04/27 06:18:58;;;;;;;3.75;2.05;;;11.00;35.70;;;;;;5051124;28;20068;-76
2021/04/27 06:21:24;;;;;;;4.93;1.73;;;10.90;35.80;;;;;;5050897;28;20079;-76
2021/04/27 06:23:51;;;;;;;2.78;1.67;;;10.90;36.00;;;;;;5050288;28;20049;-76
2021/04/27 06:26:20;;;;;;;3.08;1.67;;;10.80;36.20;;;;;;5052241;28;20041;-76
2021/04/27 06:28:48;;;;;;;4.60;1.70;;;11.10;36.00;;;;;;5049308;28;20068;-76
2021/04/27 06:31:14;;;;;;;7.97;2.30;;;11.30;35.50;;;;;;5049449;28;20076;-76
2021/04/27 06:33:41;;;;;;;6.43;1.73;;;11.20;35.30;;;;;;5046456;28;20107;-75
2021/04/27 06:36:09;;;;;;;3.03;1.50;;;11.30;35.20;;;;;;5049988;28;20503;-76
2021/04/27 06:38:37;;;;;;;3.35;1.98;;;11.00;35.60;;;;;;5046208;28;20594;-76
2021/04/27 06:41:03;;;;;;;3.83;2.00;;;11.20;35.50;;;;;;5051511;28;20049;-76
2021/04/27 06:43:32;;;;;;;6.53;2.15;;;11.00;35.20;;;;;;5049615;28;20045;-76
2021/04/27 06:45:58;;;;;;;7.03;1.63;;;11.30;35.20;;;;;;5050614;28;20699;-76
2021/04/27 06:48:25;;;;;;;5.28;2.30;;;11.40;35.30;;;;;;5048076;28;20527;-77
2021/04/27 06:50:52;;;;;;;3.80;1.88;;;11.40;35.30;;;;;;5051010;28;20102;-77
2021/04/27 06:53:19;;;;;;;6.00;2.03;;;11.60;35.30;;;;;;5050461;28;20072;-76
2021/04/27 06:55:47;;;;;;;6.72;1.80;;;11.70;34.80;;;;;;5049601;28;20079;-75
2021/04/27 06:58:18;;;;;;;3.80;1.70;;;11.50;35.00;;;;;;5049149;28;20095;-75
2021/04/27 07:00:44;;;;;;;3.83;1.85;;;11.60;34.80;;;;;;5050719;28;20064;-76
2021/04/27 07:03:11;;;;;;;3.45;1.70;;;11.80;35.20;;;;;;5049227;28;20045;-76
2021/04/27 07:05:37;;;;;;;5.82;2.25;;;11.80;34.40;;;;;;5033868;28;20204;-75
2021/04/27 07:08:05;;;;;;;5.60;2.20;;;11.90;34.60;;;;;;5049872;28;20063;-75
2021/04/27 07:10:31;;;;;;;6.63;2.17;;;11.90;34.30;;;;;;5049867;28;20140;-75
2021/04/27 07:12:58;;;;;;;4.78;2.60;;;11.80;34.00;;;;;;5051245;28;20495;-76
2021/04/27 07:15:25;;;;;;;8.30;2.00;;;12.10;34.30;;;;;;5048867;28;20049;-75
2021/04/27 07:17:52;;;;;;;2.58;1.75;;;11.90;34.10;;;;;;5049083;28;20053;-75
2021/04/27 07:20:18;;;;;;;6.10;2.17;;;11.70;34.20;;;;;;5047196;28;20045;-76
2021/04/27 07:22:45;;;;;;;5.07;2.00;;;12.00;34.10;;;;;;5045330;28;20472;-76
2021/04/27 07:25:13;;;;;;;4.70;2.20;;;12.20;33.90;;;;;;5048153;28;20432;-77
2021/04/27 07:27:40;;;;;;;8.20;3.47;;;11.80;34.40;;;;;;5047698;28;20361;-77
2021/04/27 07:30:10;;;;;;;5.70;2.55;;;12.20;34.20;;;;;;5049055;28;20049;-77
2021/04/27 07:32:37;;;;;;;5.97;3.00;;;12.20;33.80;;;;;;5048976;28;20071;-76
2021/04/27 07:35:06;;;;;;;4.35;2.38;;;12.60;33.90;;;;;;5050798;28;20080;-76
2021/04/27 07:37:33;;;;;;;4.82;1.95;;;13.00;33.10;;;;;;5049356;28;20790;-76
2021/04/27 07:39:59;;;;;;;4.07;2.33;;;13.10;33.10;;;;;;5043362;28;20037;-76
2021/04/27 07:42:26;;;;;;;4.25;2.20;;;12.60;33.20;;;;;;5048013;28;20471;-77
2021/04/27 07:44:54;;;;;;;3.40;2.33;;;12.70;33.40;;;;;;5049257;28;20400;-77
2021/04/27 07:47:21;;;;;;;8.68;2.53;;;12.80;33.10;;;;;;5049648;28;20419;-77
2021/04/27 07:49:47;;;;;;;3.78;2.22;;;12.80;33.00;;;;;;5046799;28;20408;-75
2021/04/27 07:52:14;;;;;;;4.65;2.10;;;12.60;33.60;;;;;;5043664;28;20049;-75
2021/04/27 07:54:40;;;;;;;4.53;2.45;;;12.70;33.40;;;;;;5039836;28;20064;-76
2021/04/27 07:57:07;;;;;;;7.80;2.15;;;13.00;33.70;;;;;;5041898;28;20102;-75
2021/04/27 07:59:34;;;;;;;7.18;2.17;;;13.10;33.10;;;;;;5036406;28;20049;-75
2021/04/27 08:02:00;;;;;;;6.72;2.80;;;13.60;33.00;;;;;;5033861;28;20056;-73
2021/04/27 08:04:28;;;;;;;4.55;2.35;;;13.60;32.00;;;;;;5030712;28;20053;-76
2021/04/27 08:06:55;;;;;;;7.35;2.55;;;13.10;38.80;;;;;;5029869;28;20122;-75
2021/04/27 08:09:21;;;;;;;3.75;2.40;;;13.20;44.60;;;;;;5032292;28;20049;-73
2021/04/27 08:11:48;;;;;;;5.28;2.53;;;13.70;42.30;;;;;;5050972;28;20049;-74
2021/04/27 08:14:15;;;;;;;4.97;2.80;;;13.40;37.40;;;;;;5031300;28;20132;-76
2021/04/27 08:16:42;;;;;;;6.50;2.63;;;13.50;38.10;;;;;;5031753;28;20045;-76
2021/04/27 08:19:09;;;;;;;8.05;3.20;;;13.50;37.60;;;;;;5032105;28;20052;-80
2021/04/27 08:21:37;;;;;;;6.78;2.63;;;13.30;37.10;;;;;;5034544;28;20135;-79
2021/04/27 08:24:05;;;;;;;5.28;2.75;;;13.20;36.40;;;;;;5032229;28;20579;-78
2021/04/27 08:26:51;;;;;;;6.72;2.63;;;13.40;35.00;;;;;;5030583;28;20045;-79
2021/04/27 08:29:18;;;;;;;3.38;2.53;;;13.70;34.40;;;;;;5030282;28;20143;-78
2021/04/27 08:31:56;;;;;;;5.68;3.03;;;13.90;33.80;;;;;;5029336;28;20163;-79
2021/04/27 08:34:23;;;;;;;4.15;2.55;;;14.00;35.30;;;;;;5028232;28;20477;-78
2021/04/27 08:36:50;;;;;;;4.15;2.45;;;14.20;33.60;;;;;;5028426;28;21161;-78
2021/04/27 08:39:17;;;;;;;7.05;2.65;;;14.30;35.00;;;;;;5031947;28;20065;-79
2021/04/27 08:41:45;;;;;;;6.72;2.70;;;14.40;34.20;;;;;;5028545;28;21340;-78
2021/04/27 08:44:11;;;;;;;4.50;2.90;;;13.70;33.90;;;;;;5031346;28;20127;-79
2021/04/27 08:46:38;;;;;;;7.68;2.70;;;13.70;34.60;;;;;;5026800;28;20068;-77
2021/04/27 08:49:05;;;;;;;4.18;2.90;;;13.90;34.50;;;;;;5030822;28;20045;-78
2021/04/27 08:51:32;;;;;;;8.07;2.97;;;14.10;34.20;;;;;;5030184;28;20059;-78
2021/04/27 08:54:16;;;;;;;5.65;2.80;;;14.20;34.70;;;;;;5030845;28;20060;-77
2021/04/27 08:56:43;;;;;;;5.28;2.70;;;14.20;33.70;;;;;;5028360;28;20057;-78
2021/04/27 08:59:09;;;;;;;5.30;2.95;;;14.80;32.90;;;;;;5031021;28;20164;-79
2021/04/27 09:01:35;;;;;;;5.60;3.03;;;14.60;32.80;;;;;;5030758;28;20147;-78
2021/04/27 09:04:02;;;;;;;4.60;3.17;;;15.00;32.60;;;;;;5028121;28;20388;-79
2021/04/27 09:06:29;;;;;;;5.68;3.22;;;14.70;32.30;;;;;;5029777;28;20227;-78
2021/04/27 09:08:58;;;;;;;5.88;3.08;;;14.90;33.90;;;;;;5028298;28;20063;-79
2021/04/27 09:11:27;;;;;;;7.35;3.50;;;14.90;33.00;;;;;;5030624;28;20731;-80
2021/04/27 09:14:10;;;;;;;9.13;3.45;;;14.60;33.40;;;;;;5031630;28;20521;-79
2021/04/27 09:16:38;;;;;;;7.43;3.63;;;14.60;32.40;;;;;;5029589;28;20157;-79
2021/04/27 09:19:06;;;;;;;9.57;3.20;;;14.50;32.70;;;;;;5031973;28;20152;-79
2021/04/27 09:21:35;;;;;;;6.75;3.40;;;14.60;32.40;;;;;;5032245;28;20431;-77
2021/04/27 09:24:16;;;;;;;12.15;3.78;;;14.80;34.20;;;;;;5028068;28;20098;-78
2021/04/27 09:26:51;;;;;;;4.43;3.30;;;15.20;32.10;;;;;;5027765;28;20408;-79
2021/04/27 09:29:31;;;;;;;7.07;3.10;;;14.90;33.50;;;;;;5035488;28;20064;-79
2021/04/27 09:31:58;;;;;;;6.97;3.43;;;15.30;33.60;;;;;;5028728;28;20646;-75
2021/04/27 09:34:30;;;;;;;7.57;3.60;;;15.30;32.30;;;;;;5028833;28;20398;-75
2021/04/27 09:37:09;;;;;;;11.18;3.28;;;15.30;33.60;;;;;;5029719;28;20108;-75
2021/04/27 09:39:35;;;;;;;7.70;3.30;;;15.50;32.80;;;;;;5026573;28;20053;-75
2021/04/27 09:42:05;;;;;;;5.05;3.45;;;15.70;33.60;;;;;;5029897;28;20131;-75
2021/04/27 09:44:41;;;;;;;10.40;3.50;;;16.10;32.70;;;;;;5033435;28;20610;-74
2021/04/27 09:47:08;;;;;;;6.55;3.30;;;16.30;32.50;;;;;;5032703;28;20365;-76
2021/04/27 09:49:36;;;;;;;10.40;3.30;;;16.60;31.60;;;;;;5034421;28;20416;-76
2021/04/27 09:52:08;;;;;;;8.20;3.30;;;16.30;33.20;;;;;;5035180;28;21315;-76
2021/04/27 09:54:34;;;;;;;7.15;3.65;;;15.70;31.40;;;;;;5035060;28;23574;-76
2021/04/27 09:57:01;;;;;;;13.13;3.60;;;15.90;31.30;;;;;;5037205;28;20130;-76
2021/04/27 09:59:31;;;;;;;7.43;3.28;;;16.10;31.70;;;;;;5031196;28;20121;-75
2021/04/27 10:02:02;;;;;;;6.10;3.33;;;15.40;32.10;;;;;;5032252;28;20446;-76
2021/04/27 10:04:29;;;;;;;10.60;3.20;;;15.70;32.60;;;;;;5033207;28;20134;-75
2021/04/27 10:07:00;;;;;;;9.05;3.25;;;15.40;33.20;;;;;;5033088;28;20573;-75
2021/04/27 10:09:29;;;;;;;7.10;3.22;;;15.70;33.40;;;;;;5033673;28;20045;-75
2021/04/27 10:11:57;;;;;;;7.40;3.50;;;16.00;34.20;;;;;;5032947;28;20053;-75
2021/04/27 10:14:24;;;;;;;6.05;3.35;;;16.20;32.30;;;;;;5037343;28;20044;-76
2021/04/27 10:16:50;;;;;;;8.35;3.72;;;16.40;31.20;;;;;;5035439;28;20049;-77
2021/04/27 10:19:17;;;;;;;8.60;3.58;;;16.30;31.10;;;;;;5035929;28;20048;-80
2021/04/27 10:21:45;;;;;;;6.43;3.47;;;17.30;31.70;;;;;;5035455;28;20045;-79
2021/04/27 10:24:18;;;;;;;6.40;3.50;;;19.60;31.50;;;;;;5037221;28;20049;-80
2021/04/27 10:26:46;;;;;;;7.88;3.88;;;20.70;29.30;;;;;;5039661;28;20903;-79
2021/04/27 10:29:24;;;;;;;8.38;3.80;;;21.50;28.40;;;;;;5037918;28;20049;-81
2021/04/27 10:32:12;;;;;;;5.05;3.53;;;20.30;28.20;;;;;;5036269;28;20051;-79
2021/04/27 10:34:59;;;;;;;6.43;4.10;;;20.70;29.20;;;;;;5037812;28;20044;-81
2021/04/27 10:37:31;;;;;;;7.07;3.67;;;19.60;29.20;;;;;;5040026;28;20063;-80
2021/04/27 10:39:57;;;;;;;7.93;3.15;;;18.20;29.30;;;;;;5038627;28;20500;-81
2021/04/27 10:42:31;;;;;;;13.23;3.70;;;18.40;31.80;;;;;;5039709;28;20053;-81
2021/04/27 10:45:05;;;;;;;10.00;3.53;;;20.30;28.70;;;;;;5039351;28;20377;-83
2021/04/27 10:47:43;;;;;;;7.53;3.63;;;19.80;29.50;;;;;;5038909;28;21477;-82
2021/04/27 10:50:28;;;;;;;5.63;3.60;;;19.10;28.50;;;;;;5057640;28;20056;-81
2021/04/27 10:52:54;;;;;;;7.43;3.53;;;21.60;28.00;;;;;;5035177;28;20084;-81
2021/04/27 10:55:29;;;;;;;6.20;3.50;;;23.10;27.20;;;;;;5039663;28;20057;-82
2021/04/27 10:58:05;;;;;;;8.27;3.58;;;22.80;26.60;;;;;;5038900;28;20158;-82
2021/04/27 11:00:49;;;;;;;6.10;3.65;;;22.70;27.10;;;;;;5039715;28;20056;-82
2021/04/27 11:03:25;;;;;;;6.65;3.35;;;22.90;27.00;;;;;;5041954;28;20557;-82
2021/04/27 11:06:13;;;;;;;12.98;4.78;;;21.20;26.30;;;;;;5047068;28;20044;-81
2021/04/27 11:08:43;;;;;;;6.30;3.55;;;19.60;28.90;;;;;;5046001;28;20073;-77
2021/04/27 11:11:23;;;;;;;8.23;4.43;;;18.70;28.90;;;;;;5043339;28;20061;-78
2021/04/27 11:13:51;;;;;;;8.85;4.53;;;17.90;30.80;;;;;;5045047;28;20134;-78
2021/04/27 11:16:29;;;;;;;15.75;6.07;;;17.50;32.10;;;;;;5045273;28;20057;-78
2021/04/27 11:19:29;;;;;;;7.03;4.40;;;17.50;32.40;;;;;;5044284;28;20444;-78
2021/04/27 11:22:15;;;;;;;7.75;3.88;;;17.10;30.90;;;;;;5045094;28;20076;-77
2021/04/27 11:24:44;;;;;;;27.67;10.10;;;17.10;31.10;;;;;;5043348;28;20064;-78
2021/04/27 11:27:23;;;;;;;18.63;6.78;;;17.60;31.30;;;;;;5043058;28;20814;-78
2021/04/27 11:30:07;;;;;;;8.55;4.30;;;18.30;29.40;;;;;;5045137;28;20068;-76
2021/04/27 11:32:35;;;;;;;19.17;6.22;;;17.80;29.00;;;;;;5043465;28;20130;-78
2021/04/27 11:35:11;;;;;;;8.07;4.18;;;17.80;30.00;;;;;;5040629;28;20049;-78
2021/04/27 11:37:49;;;;;;;9.00;4.88;;;18.20;29.40;;;;;;5042409;28;20509;-76
2021/04/27 11:40:17;;;;;;;5.35;3.58;;;17.90;29.00;;;;;;5042014;28;20475;-76
2021/04/27 11:42:44;;;;;;;22.05;7.50;;;17.80;29.30;;;;;;5043304;28;20703;-76
2021/04/27 11:45:16;;;;;;;8.57;4.20;;;18.30;30.00;;;;;;5043777;28;20541;-76
2021/04/27 11:47:49;;;;;;;7.30;3.65;;;20.50;28.30;;;;;;5042695;28;20041;-75
2021/04/27 11:50:18;;;;;;;10.23;4.25;;;20.90;26.40;;;;;;5043818;28;20103;-76
2021/04/27 11:53:04;;;;;;;5.95;3.58;;;18.90;27.50;;;;;;5043012;28;20053;-75
2021/04/27 11:55:50;;;;;;;6.93;3.47;;;19.00;27.90;;;;;;5044615;28;20643;-76
2021/04/27 11:58:32;;;;;;;8.80;4.93;;;22.00;26.50;;;;;;5043945;28;20063;-77
2021/04/27 12:01:01;;;;;;;6.85;4.28;;;21.30;26.30;;;;;;5041627;28;20526;-77
2021/04/27 12:03:32;;;;;;;19.00;8.10;;;22.50;26.10;;;;;;5039926;28;20494;-76
2021/04/27 12:06:08;;;;;;;20.42;7.55;;;22.90;26.60;;;;;;5043262;28;20044;-76
2021/04/27 12:08:38;;;;;;;23.05;8.07;;;22.30;27.50;;;;;;5042836;28;20388;-76
2021/04/27 12:11:18;;;;;;;11.15;5.00;;;23.80;27.20;;;;;;5043201;28;20084;-76
2021/04/27 12:13:55;;;;;;;;;;;23.00;27.20;;;;;;5043246;28;20106;-77
2021/04/27 12:16:27;;;;;;;14.57;5.78;;;22.90;27.60;;;;;;5042580;28;19943;-76
2021/04/27 12:18:57;;;;;;;15.38;5.97;;;22.80;27.50;;;;;;5044247;28;20118;-75
2021/04/27 12:21:30;;;;;;;8.95;4.55;;;22.20;27.70;;;;;;5043367;28;20412;-77
2021/04/27 12:24:24;;;;;;;19.33;6.88;;;23.10;28.00;;;;;;5041205;28;20606;-77
2021/04/27 12:26:56;;;;;;;10.98;6.00;;;24.20;27.90;;;;;;5041349;28;20052;-77
2021/04/27 12:29:28;;;;;;;13.73;5.57;;;24.60;27.20;;;;;;5040214;28;20057;-76
2021/04/27 12:31:56;;;;;;;12.65;6.28;;;25.10;27.50;;;;;;5041371;28;20440;-76
2021/04/27 12:34:23;;;;;;;13.32;5.68;;;26.40;26.50;;;;;;5042145;28;20068;-76
2021/04/27 12:36:51;;;;;;;14.60;6.78;;;26.60;25.80;;;;;;5041518;28;20049;-77
2021/04/27 12:39:20;;;;;;;16.05;5.57;;;26.60;26.00;;;;;;5042509;28;20130;-76
2021/04/27 12:41:46;;;;;;;13.05;5.20;;;27.10;26.10;;;;;;5042516;28;20122;-77
2021/04/27 12:44:35;;;;;;;11.73;5.18;;;27.40;24.50;;;;;;5040382;28;20122;-76
2021/04/27 12:47:18;;;;;;;12.07;5.30;;;26.90;24.60;;;;;;5043127;28;21633;-77
2021/04/27 12:49:56;;;;;;;8.73;4.63;;;27.60;24.70;;;;;;5041259;28;20048;-77
2021/04/27 12:52:23;;;;;;;9.50;4.85;;;26.40;23.50;;;;;;5039572;28;20053;-78
2021/04/27 12:55:06;;;;;;;17.25;4.63;;;25.70;25.00;;;;;;5041067;28;20631;-77
2021/04/27 12:57:33;;;;;;;11.82;4.78;;;27.40;24.10;;;;;;5040585;28;20052;-78
2021/04/27 13:00:13;;;;;;;7.72;4.43;;;27.90;23.60;;;;;;5042012;28;20052;-77
2021/04/27 13:02:40;;;;;;;6.60;4.53;;;28.30;23.10;;;;;;5040276;28;20044;-76
2021/04/27 13:05:10;;;;;;;6.97;3.85;;;26.50;22.20;;;;;;5043047;28;20091;-78
2021/04/27 13:07:38;;;;;;;9.30;4.60;;;24.80;24.00;;;;;;5040837;28;20045;-78